Time;durP1;ratioP1;P1;durP2;ratioP2;P2;SDS_P1;SDS_P2;PMS_P1;PMS_P2;Temp;Humidity;BMP_temperature;BMP_pressure;BME280_temperature;BME280_humidity;BME280_pressure;Samples;Min_cycle;Max_cycle;Signal;HPM_P1;HPM_P2
2024/01/31 00:01:50;;;;;;;349.10;144.68;;;-3.20;99.90;;;;;;5097813;28;20068;-56
2024/01/31 00:04:15;;;;;;;380.70;157.20;;;-3.30;99.90;;;;;;5097642;28;20413;-56
2024/01/31 00:06:41;;;;;;;385.58;157.27;;;-3.40;99.90;;;;;;5097567;28;20043;-56
2024/01/31 00:09:08;;;;;;;349.90;146.10;;;-3.40;99.90;;;;;;5097357;28;20036;-56
2024/01/31 00:11:34;;;;;;;386.08;158.68;;;-3.30;99.90;;;;;;5096155;28;20032;-56
2024/01/31 00:14:00;;;;;;;398.23;165.82;;;-3.20;99.90;;;;;;5097393;28;20145;-56
2024/01/31 00:16:26;;;;;;;369.55;157.10;;;-3.20;99.90;;;;;;5097469;28;20495;-56
2024/01/31 00:18:52;;;;;;;341.23;143.60;;;-3.20;99.90;;;;;;5097193;28;20082;-56
2024/01/31 00:21:18;;;;;;;316.38;136.07;;;-3.30;99.90;;;;;;5097295;28;20031;-56
2024/01/31 00:23:44;;;;;;;314.13;135.45;;;-3.40;99.90;;;;;;5097329;28;20028;-56
2024/01/31 00:26:10;;;;;;;311.45;132.13;;;-3.40;99.90;;;;;;5096895;28;20107;-56
2024/01/31 00:28:36;;;;;;;352.88;148.95;;;-3.50;99.90;;;;;;5096280;28;20074;-56
2024/01/31 00:31:02;;;;;;;308.83;129.93;;;-3.60;99.90;;;;;;5097202;28;20043;-56
2024/01/31 00:33:28;;;;;;;329.63;138.10;;;-3.50;99.90;;;;;;5097239;28;20024;-56
2024/01/31 00:35:55;;;;;;;324.73;133.98;;;-3.60;99.90;;;;;;5097116;28;20020;-56
2024/01/31 00:38:21;;;;;;;334.88;136.73;;;-3.70;99.90;;;;;;5096856;28;20043;-56
2024/01/31 00:40:47;;;;;;;377.98;148.75;;;-3.70;99.90;;;;;;5096925;28;20027;-56
2024/01/31 00:43:13;;;;;;;364.60;146.85;;;-3.60;99.90;;;;;;5096997;28;20024;-56
2024/01/31 00:45:39;;;;;;;356.63;143.95;;;-3.60;99.90;;;;;;5096913;28;20028;-56
2024/01/31 00:48:05;;;;;;;397.65;156.73;;;-3.60;99.90;;;;;;5096624;28;20133;-56
2024/01/31 00:50:31;;;;;;;465.50;183.68;;;-3.60;99.90;;;;;;5096801;28;20063;-56
2024/01/31 00:52:57;;;;;;;513.30;203.13;;;-3.50;99.90;;;;;;5096665;28;20059;-56
2024/01/31 00:55:23;;;;;;;541.47;218.80;;;-3.50;99.90;;;;;;5096648;28;20031;-56
2024/01/31 00:57:49;;;;;;;521.53;208.88;;;-3.50;99.90;;;;;;5096562;28;20020;-56
2024/01/31 01:00:15;;;;;;;516.70;202.65;;;-3.60;99.90;;;;;;5096612;28;20050;-56
2024/01/31 01:02:41;;;;;;;484.65;182.40;;;-3.60;99.90;;;;;;5096605;28;20031;-56
2024/01/31 01:05:11;;;;;;;467.35;180.77;;;-3.60;99.90;;;;;;5096534;28;20024;-56
2024/01/31 01:07:40;;;;;;;474.50;180.85;;;-3.70;99.90;;;;;;5096206;28;20036;-56
2024/01/31 01:10:12;;;;;;;467.43;183.47;;;-3.70;99.90;;;;;;5096399;28;20028;-56
2024/01/31 01:12:38;;;;;;;472.60;188.63;;;-3.70;99.90;;;;;;5096198;28;20289;-56
2024/01/31 01:15:05;;;;;;;521.20;217.20;;;-3.80;99.90;;;;;;5096309;28;20027;-56
2024/01/31 01:17:32;;;;;;;449.08;175.50;;;-3.70;99.90;;;;;;5096018;28;20111;-56
2024/01/31 01:19:57;;;;;;;417.65;155.75;;;-3.70;99.90;;;;;;5096283;28;20024;-56
2024/01/31 01:22:23;;;;;;;485.10;181.48;;;-3.70;99.90;;;;;;5096114;28;20031;-56
2024/01/31 01:24:49;;;;;;;457.60;169.40;;;-3.90;99.90;;;;;;5096201;28;20047;-56
2024/01/31 01:27:15;;;;;;;420.42;162.15;;;-3.90;99.90;;;;;;5096113;28;20096;-56
2024/01/31 01:29:41;;;;;;;394.00;150.50;;;-4.00;99.90;;;;;;5096046;28;20056;-56
2024/01/31 01:32:07;;;;;;;384.20;151.68;;;-3.90;99.90;;;;;;5096260;28;20024;-55
2024/01/31 01:34:33;;;;;;;397.10;161.02;;;-3.80;99.90;;;;;;5096271;28;20465;-56
2024/01/31 01:36:59;;;;;;;349.17;142.95;;;-3.80;99.90;;;;;;5095812;28;20036;-56
2024/01/31 01:39:24;;;;;;;341.83;136.60;;;-3.80;99.90;;;;;;5095469;28;20055;-56
2024/01/31 01:41:51;;;;;;;299.88;126.35;;;-3.80;99.90;;;;;;5095878;28;20428;-56
2024/01/31 01:44:16;;;;;;;291.05;121.13;;;-3.90;99.90;;;;;;5095836;28;20024;-55
2024/01/31 01:46:44;;;;;;;280.20;119.65;;;-3.90;99.90;;;;;;5095795;28;20032;-56
2024/01/31 01:49:12;;;;;;;286.25;119.45;;;-3.90;99.90;;;;;;5095824;28;20035;-56
2024/01/31 01:51:39;;;;;;;307.13;125.65;;;-4.00;99.90;;;;;;5095666;28;20024;-56
2024/01/31 01:54:05;;;;;;;297.25;124.80;;;-3.90;99.90;;;;;;5095739;28;20098;-56
2024/01/31 01:56:33;;;;;;;277.33;118.55;;;-3.90;99.90;;;;;;5095588;28;20058;-56
2024/01/31 01:58:59;;;;;;;280.52;119.40;;;-4.00;99.90;;;;;;5095517;28;20047;-56
2024/01/31 02:01:27;;;;;;;264.70;114.20;;;-4.10;99.90;;;;;;5095673;28;20024;-55
2024/01/31 02:04:00;;;;;;;282.60;118.70;;;-4.00;99.90;;;;;;5095597;28;20016;-56
2024/01/31 02:06:26;;;;;;;280.27;122.30;;;-4.10;99.90;;;;;;5093670;28;20045;-56
2024/01/31 02:08:52;;;;;;;294.67;125.13;;;-3.90;99.90;;;;;;5095438;28;20028;-56
2024/01/31 02:11:18;;;;;;;357.65;142.40;;;-3.80;99.90;;;;;;5095316;28;20033;-56
2024/01/31 02:13:43;;;;;;;381.52;149.35;;;-3.70;99.90;;;;;;5095510;28;20031;-56
2024/01/31 02:16:10;;;;;;;342.73;135.52;;;-3.60;99.90;;;;;;5095323;28;20416;-56
2024/01/31 02:18:35;;;;;;;354.70;146.02;;;-3.60;99.90;;;;;;5095414;28;20042;-56
2024/01/31 02:21:01;;;;;;;298.15;125.45;;;-3.80;99.90;;;;;;5095639;28;20028;-56
2024/01/31 02:23:27;;;;;;;280.20;117.25;;;-3.90;99.90;;;;;;5095415;28;20111;-56
2024/01/31 02:25:53;;;;;;;257.38;108.28;;;-4.00;99.90;;;;;;5094908;28;20552;-56
2024/01/31 02:28:19;;;;;;;268.05;113.35;;;-4.00;99.90;;;;;;5095366;28;20031;-56
2024/01/31 02:30:45;;;;;;;240.05;106.85;;;-4.10;99.90;;;;;;5095407;28;20032;-56
2024/01/31 02:33:11;;;;;;;253.00;108.00;;;-4.10;99.90;;;;;;5095150;28;20363;-56
2024/01/31 02:35:36;;;;;;;259.73;110.55;;;-4.10;99.90;;;;;;5095208;28;20028;-56
2024/01/31 02:38:02;;;;;;;254.88;108.85;;;-4.00;99.90;;;;;;5095171;28;20344;-56
2024/01/31 02:40:29;;;;;;;250.73;107.57;;;-4.00;99.90;;;;;;5095151;28;20020;-56
2024/01/31 02:42:56;;;;;;;258.95;112.38;;;-4.10;99.90;;;;;;5095261;28;20032;-56
2024/01/31 02:45:27;;;;;;;251.95;110.53;;;-4.10;99.90;;;;;;5095461;28;20028;-56
2024/01/31 02:47:53;;;;;;;249.00;109.78;;;-4.00;99.90;;;;;;5095047;28;20115;-56
2024/01/31 02:50:19;;;;;;;249.02;106.47;;;-4.00;99.90;;;;;;5095817;28;20049;-56
2024/01/31 02:52:47;;;;;;;258.08;108.75;;;-4.00;99.90;;;;;;5098971;28;20050;-56
2024/01/31 02:55:13;;;;;;;261.90;114.20;;;-4.10;99.90;;;;;;5098997;28;20385;-56
2024/01/31 02:57:38;;;;;;;264.98;111.38;;;-4.10;99.90;;;;;;5098838;28;20103;-56
2024/01/31 03:00:06;;;;;;;256.13;112.85;;;-3.90;99.90;;;;;;5098960;28;20482;-56
2024/01/31 03:02:32;;;;;;;289.80;120.35;;;-4.00;99.90;;;;;;5098784;28;20033;-56
2024/01/31 03:04:58;;;;;;;268.08;115.43;;;-3.90;99.90;;;;;;5098686;28;20028;-56
2024/01/31 03:07:24;;;;;;;257.88;109.22;;;-4.00;99.90;;;;;;5098623;28;20031;-56
2024/01/31 03:09:50;;;;;;;301.98;123.15;;;-4.10;99.90;;;;;;5098677;28;20417;-56
2024/01/31 03:12:15;;;;;;;287.58;115.97;;;-4.10;99.90;;;;;;5098621;28;20043;-56
2024/01/31 03:14:42;;;;;;;299.63;121.00;;;-4.10;99.90;;;;;;5098616;28;20034;-56
2024/01/31 03:17:08;;;;;;;288.02;118.55;;;-4.10;99.90;;;;;;5098289;28;20374;-56
2024/01/31 03:19:35;;;;;;;273.13;114.65;;;-4.30;99.90;;;;;;5098575;28;20115;-56
2024/01/31 03:22:01;;;;;;;314.05;127.85;;;-4.30;99.90;;;;;;5098455;28;20485;-56
2024/01/31 03:24:28;;;;;;;296.63;123.10;;;-4.30;99.90;;;;;;5098326;28;20040;-55
2024/01/31 03:26:53;;;;;;;284.58;119.88;;;-4.40;99.90;;;;;;5098519;28;20044;-56
2024/01/31 03:29:19;;;;;;;270.27;111.47;;;-4.40;99.90;;;;;;5098407;28;20032;-56
2024/01/31 03:31:46;;;;;;;260.30;112.20;;;-4.50;99.90;;;;;;5098229;28;20046;-56
2024/01/31 03:34:12;;;;;;;261.88;111.40;;;-4.50;99.90;;;;;;5098498;28;20374;-56
2024/01/31 03:36:38;;;;;;;271.88;112.45;;;-4.50;99.90;;;;;;5098102;28;20024;-56
2024/01/31 03:39:03;;;;;;;264.33;108.90;;;-4.40;99.90;;;;;;5098229;28;20020;-56
2024/01/31 03:41:29;;;;;;;251.52;106.35;;;-4.50;99.90;;;;;;5098068;28;20469;-56
2024/01/31 03:43:56;;;;;;;256.52;109.05;;;-4.50;99.90;;;;;;5098109;28;20031;-56
2024/01/31 03:46:22;;;;;;;256.40;106.25;;;-4.50;99.90;;;;;;5097952;28;20024;-56
2024/01/31 03:48:48;;;;;;;241.55;103.55;;;-4.50;99.90;;;;;;5097918;28;20024;-56
2024/01/31 03:51:20;;;;;;;228.13;99.72;;;-4.50;99.90;;;;;;5097841;28;20481;-55
2024/01/31 03:53:47;;;;;;;230.23;98.55;;;-4.30;99.90;;;;;;5097865;28;20039;-56
2024/01/31 03:56:13;;;;;;;228.23;96.25;;;-4.40;99.90;;;;;;5097852;28;20466;-56
2024/01/31 03:58:40;;;;;;;224.35;99.25;;;-4.50;99.90;;;;;;5097743;28;20020;-56
2024/01/31 04:01:06;;;;;;;226.80;95.45;;;-4.50;99.90;;;;;;5097385;28;20032;-56
2024/01/31 04:03:32;;;;;;;215.75;90.00;;;-4.60;99.90;;;;;;5097756;28;20024;-55
2024/01/31 04:05:58;;;;;;;221.38;95.35;;;-4.60;99.90;;;;;;5096349;28;20159;-56
2024/01/31 04:08:24;;;;;;;207.32;90.13;;;-4.70;99.90;;;;;;5097564;28;20056;-56
2024/01/31 04:10:52;;;;;;;216.05;89.13;;;-4.70;99.90;;;;;;5097601;28;20046;-56
2024/01/31 04:13:21;;;;;;;201.88;88.07;;;-4.70;99.90;;;;;;5097346;28;20087;-55
2024/01/31 04:15:47;;;;;;;204.65;89.03;;;-4.70;99.90;;;;;;5097352;28;20024;-56
2024/01/31 04:18:13;;;;;;;203.25;87.10;;;-4.80;99.90;;;;;;5097173;28;20066;-56
2024/01/31 04:20:39;;;;;;;227.05;91.82;;;-4.70;99.90;;;;;;5097530;28;20428;-55
2024/01/31 04:23:06;;;;;;;224.75;90.28;;;-4.70;99.90;;;;;;5097280;28;20123;-56
2024/01/31 04:25:32;;;;;;;222.23;93.70;;;-4.70;99.90;;;;;;5097283;28;20413;-56
2024/01/31 04:27:58;;;;;;;210.15;88.55;;;-4.60;99.90;;;;;;5097203;28;20054;-56
2024/01/31 04:30:24;;;;;;;194.00;85.72;;;-4.50;99.90;;;;;;5097225;28;20036;-56
2024/01/31 04:32:50;;;;;;;187.75;81.15;;;-4.60;99.90;;;;;;5097011;28;20039;-55
2024/01/31 04:35:16;;;;;;;193.25;86.03;;;-4.60;99.90;;;;;;5097023;28;20028;-56
2024/01/31 04:37:42;;;;;;;208.07;88.57;;;-4.70;99.90;;;;;;5097089;28;20051;-55
2024/01/31 04:40:08;;;;;;;228.18;93.60;;;-4.70;99.90;;;;;;5096937;28;20069;-55
2024/01/31 04:42:35;;;;;;;227.00;89.38;;;-4.60;99.90;;;;;;5096991;28;20056;-56
2024/01/31 04:45:01;;;;;;;228.50;93.30;;;-4.60;99.90;;;;;;5097447;28;20020;-55
2024/01/31 04:47:26;;;;;;;215.80;89.85;;;-4.60;99.90;;;;;;5096663;28;20073;-56
2024/01/31 04:49:55;;;;;;;210.70;86.95;;;-4.70;99.90;;;;;;5096853;28;20082;-55
2024/01/31 04:52:21;;;;;;;212.82;87.43;;;-4.50;99.90;;;;;;5096717;28;20035;-56
2024/01/31 04:54:47;;;;;;;208.23;89.07;;;-4.60;99.90;;;;;;5096722;28;20016;-56
2024/01/31 04:57:13;;;;;;;203.68;87.13;;;-4.60;99.90;;;;;;5096766;28;20027;-56
2024/01/31 04:59:39;;;;;;;205.50;89.55;;;-4.60;99.90;;;;;;5096872;28;20441;-56
2024/01/31 05:02:08;;;;;;;196.05;82.75;;;-4.80;99.90;;;;;;5096551;28;20027;-56
2024/01/31 05:04:35;;;;;;;190.45;81.75;;;-4.90;99.90;;;;;;5096567;28;20028;-55
2024/01/31 05:07:02;;;;;;;207.30;88.82;;;-4.80;99.90;;;;;;5096401;28;20028;-56
2024/01/31 05:09:28;;;;;;;184.27;76.88;;;-4.70;99.90;;;;;;5095217;28;20036;-56
2024/01/31 05:11:53;;;;;;;166.25;72.20;;;-4.80;99.90;;;;;;5096276;28;20124;-56
2024/01/31 05:14:20;;;;;;;166.10;73.32;;;-4.90;99.90;;;;;;5095686;28;20470;-55
2024/01/31 05:16:46;;;;;;;234.18;99.88;;;-5.00;99.90;;;;;;5096110;28;20356;-56
2024/01/31 05:19:12;;;;;;;205.63;90.47;;;-5.00;99.90;;;;;;5096304;28;20035;-56
2024/01/31 05:21:48;;;;;;;199.70;90.18;;;-5.10;99.90;;;;;;5096306;28;20024;-55
2024/01/31 05:24:15;;;;;;;201.00;88.65;;;-5.00;99.90;;;;;;5096014;28;20363;-56
2024/01/31 05:26:45;;;;;;;201.75;85.53;;;-5.00;99.90;;;;;;5096128;28;20060;-56
2024/01/31 05:29:12;;;;;;;;;;;-4.90;99.90;;;;;;5096808;28;20073;-56
2024/01/31 05:31:37;;;;;;;214.60;85.00;;;-5.00;99.90;;;;;;5096071;28;19908;-56
2024/01/31 05:34:03;;;;;;;203.40;82.53;;;-5.00;99.90;;;;;;5094801;28;20031;-56
2024/01/31 05:36:29;;;;;;;211.80;86.38;;;-5.00;99.90;;;;;;5096047;28;20031;-55
2024/01/31 05:38:55;;;;;;;206.82;86.35;;;-4.90;99.90;;;;;;5095682;28;20024;-55
2024/01/31 05:41:21;;;;;;;199.13;81.90;;;-5.00;99.90;;;;;;5095832;28;20070;-55
2024/01/31 05:43:47;;;;;;;199.30;83.88;;;-5.00;99.90;;;;;;5095911;28;20028;-56
2024/01/31 05:46:15;;;;;;;197.65;82.40;;;-5.00;99.90;;;;;;5095867;28;20036;-56
2024/01/31 05:48:46;;;;;;;220.50;88.30;;;-4.90;99.90;;;;;;5095756;28;20020;-56
2024/01/31 05:51:11;;;;;;;235.57;94.15;;;-4.80;99.90;;;;;;5095963;28;20024;-56
2024/01/31 05:53:37;;;;;;;213.77;89.15;;;-4.80;99.90;;;;;;5095667;28;20470;-55
2024/01/31 05:56:03;;;;;;;233.20;93.35;;;-4.90;99.90;;;;;;5095754;28;20016;-55
2024/01/31 05:58:29;;;;;;;254.63;97.63;;;-4.90;99.90;;;;;;5095560;28;20024;-56
2024/01/31 06:00:56;;;;;;;215.18;88.45;;;-4.90;99.90;;;;;;5095691;28;20035;-55
2024/01/31 06:03:24;;;;;;;191.25;83.15;;;-4.90;99.90;;;;;;5095715;28;20028;-55
2024/01/31 06:05:51;;;;;;;207.20;86.05;;;-4.80;99.90;;;;;;5095502;28;20036;-56
2024/01/31 06:08:18;;;;;;;189.02;79.50;;;-5.00;99.90;;;;;;5095333;28;20527;-56
2024/01/31 06:10:49;;;;;;;196.65;76.45;;;-5.00;99.90;;;;;;5095329;28;20077;-55
2024/01/31 06:13:16;;;;;;;183.40;75.05;;;-5.00;99.90;;;;;;5095478;28;20059;-56
2024/01/31 06:15:41;;;;;;;162.52;72.30;;;-4.90;99.90;;;;;;5095362;28;20024;-55
2024/01/31 06:18:07;;;;;;;179.98;74.00;;;-5.00;99.90;;;;;;5095262;28;20127;-56
2024/01/31 06:20:39;;;;;;;169.32;72.57;;;-4.90;99.90;;;;;;5094133;28;20035;-56
2024/01/31 06:23:06;;;;;;;168.45;69.75;;;-4.90;99.90;;;;;;5095624;28;20024;-56
2024/01/31 06:25:32;;;;;;;158.23;68.45;;;-5.00;99.90;;;;;;5098112;28;20066;-56
2024/01/31 06:27:58;;;;;;;157.75;65.25;;;-5.00;99.90;;;;;;5099671;28;20029;-56
2024/01/31 06:30:31;;;;;;;180.18;68.13;;;-5.00;99.90;;;;;;5098687;28;20493;-56
2024/01/31 06:33:05;;;;;;;170.30;67.82;;;-5.00;99.90;;;;;;5099413;28;20458;-56
2024/01/31 06:35:35;;;;;;;167.55;72.00;;;-5.00;99.90;;;;;;5099132;28;20085;-55
2024/01/31 06:38:02;;;;;;;180.57;73.37;;;-5.00;99.90;;;;;;5098989;28;20107;-56
2024/01/31 06:40:30;;;;;;;162.93;70.28;;;-4.90;99.90;;;;;;5099151;28;20024;-56
2024/01/31 06:42:59;;;;;;;178.43;76.68;;;-4.80;99.90;;;;;;5099261;28;20035;-57
2024/01/31 06:45:25;;;;;;;170.68;79.57;;;-4.30;99.90;;;;;;5099045;28;20027;-57
2024/01/31 06:47:52;;;;;;;170.30;74.82;;;-3.40;99.90;;;;;;5098855;28;20058;-57
2024/01/31 06:50:18;;;;;;;165.48;75.03;;;-2.80;99.90;;;;;;5099285;28;20077;-57
2024/01/31 06:52:44;;;;;;;196.98;80.55;;;-1.90;99.90;;;;;;5098908;28;20032;-57
2024/01/31 06:55:10;;;;;;;160.40;69.18;;;-1.20;99.90;;;;;;5099050;28;20065;-57
2024/01/31 06:57:37;;;;;;;151.30;68.78;;;-0.20;99.90;;;;;;5098367;28;20055;-57
2024/01/31 07:00:06;;;;;;;150.45;65.93;;;0.10;99.90;;;;;;5098751;28;20028;-58
2024/01/31 07:02:31;;;;;;;119.05;55.60;;;0.80;99.90;;;;;;5098387;28;20598;-58
2024/01/31 07:04:57;;;;;;;134.43;59.25;;;2.20;99.90;;;;;;5098437;28;20085;-58
2024/01/31 07:07:23;;;;;;;124.55;57.08;;;2.20;99.90;;;;;;5098416;28;20034;-58
2024/01/31 07:09:49;;;;;;;134.27;63.60;;;2.80;99.90;;;;;;5098544;28;20385;-58
2024/01/31 07:12:15;;;;;;;140.65;64.57;;;2.20;99.90;;;;;;5098382;28;20032;-58
2024/01/31 07:14:42;;;;;;;162.45;70.85;;;2.50;99.90;;;;;;5098479;28;20032;-58
2024/01/31 07:17:08;;;;;;;159.85;71.35;;;2.30;99.90;;;;;;5098237;28;20074;-58
2024/01/31 07:19:34;;;;;;;150.75;72.18;;;2.80;99.90;;;;;;5098080;28;20028;-58
2024/01/31 07:21:59;;;;;;;178.43;85.05;;;3.30;99.90;;;;;;5098456;28;20088;-58
2024/01/31 07:24:27;;;;;;;190.10;87.07;;;3.80;99.90;;;;;;5096904;28;20049;-58
2024/01/31 07:26:53;;;;;;;230.90;101.93;;;4.10;99.90;;;;;;5098275;28;20394;-58
2024/01/31 07:29:19;;;;;;;254.93;118.00;;;4.90;99.90;;;;;;5098363;28;20074;-58
2024/01/31 07:31:45;;;;;;;307.50;138.23;;;4.90;99.90;;;;;;5098430;28;20024;-58
2024/01/31 07:34:11;;;;;;;392.73;172.48;;;5.10;99.90;;;;;;5097141;28;20099;-58
2024/01/31 07:36:37;;;;;;;441.83;199.65;;;5.30;99.90;;;;;;5092682;28;20023;-58
2024/01/31 07:39:04;;;;;;;420.48;197.20;;;6.30;99.90;;;;;;5097854;28;20107;-58
2024/01/31 07:41:30;;;;;;;406.33;193.43;;;6.70;99.90;;;;;;5098157;28;20058;-59
2024/01/31 07:43:56;;;;;;;417.23;197.73;;;6.80;99.90;;;;;;5097898;28;20020;-58
2024/01/31 07:46:23;;;;;;;414.30;200.63;;;6.50;99.90;;;;;;5097908;28;20043;-58
2024/01/31 07:48:48;;;;;;;418.50;202.70;;;6.80;99.90;;;;;;5097760;28;20077;-58
2024/01/31 07:51:15;;;;;;;388.13;189.15;;;7.30;99.90;;;;;;5097457;28;20477;-58
2024/01/31 07:53:41;;;;;;;397.90;183.38;;;8.50;99.90;;;;;;5097699;28;20023;-58
2024/01/31 07:56:07;;;;;;;374.05;179.85;;;7.20;99.90;;;;;;5097207;28;20024;-58
2024/01/31 07:58:34;;;;;;;367.73;172.20;;;7.30;99.90;;;;;;5097398;28;20047;-58
2024/01/31 08:01:01;;;;;;;355.50;176.02;;;7.10;99.90;;;;;;5097636;28;20047;-58
2024/01/31 08:03:27;;;;;;;315.83;149.93;;;7.20;99.90;;;;;;5097512;28;20067;-58
2024/01/31 08:05:53;;;;;;;351.45;174.32;;;7.40;99.90;;;;;;5097619;28;20043;-58
2024/01/31 08:08:18;;;;;;;398.20;189.13;;;7.40;99.90;;;;;;5097362;28;20032;-58
2024/01/31 08:10:44;;;;;;;382.30;192.88;;;7.60;99.90;;;;;;5097396;28;20024;-59
2024/01/31 08:16:36;;;;;;;342.73;164.32;;;7.70;99.90;;;;;;5095566;28;20038;-59
2024/01/31 08:19:02;;;;;;;319.33;158.57;;;7.40;99.90;;;;;;5097104;28;20541;-59
2024/01/31 08:21:32;;;;;;;326.27;160.65;;;7.40;99.90;;;;;;5096821;28;20028;-59
2024/01/31 08:23:58;;;;;;;345.73;170.68;;;8.10;99.90;;;;;;5096953;28;20036;-59
2024/01/31 08:26:24;;;;;;;307.85;154.93;;;8.60;99.90;;;;;;5096942;28;20500;-58
2024/01/31 08:28:50;;;;;;;315.40;153.35;;;8.40;99.90;;;;;;5096952;28;20032;-59
2024/01/31 08:31:16;;;;;;;306.60;154.98;;;8.90;99.90;;;;;;5096966;28;20032;-59
2024/01/31 08:33:43;;;;;;;293.40;154.52;;;8.90;99.90;;;;;;5097046;28;20032;-59
2024/01/31 08:36:09;;;;;;;309.40;154.05;;;8.80;99.90;;;;;;5096836;28;20064;-59
2024/01/31 08:38:37;;;;;;;328.30;151.25;;;8.70;99.90;;;;;;5096663;28;20257;-59
2024/01/31 08:41:05;;;;;;;274.88;135.85;;;9.60;99.90;;;;;;5096821;28;20023;-59
2024/01/31 08:43:30;;;;;;;269.45;129.82;;;9.90;99.90;;;;;;5096630;28;20032;-59
2024/01/31 08:45:56;;;;;;;215.68;104.70;;;10.40;99.90;;;;;;5096605;28;20362;-59
2024/01/31 08:48:22;;;;;;;207.88;97.93;;;10.80;99.90;;;;;;5095631;28;20067;-59
2024/01/31 08:50:48;;;;;;;204.85;89.65;;;10.70;99.90;;;;;;5096806;28;20118;-59
2024/01/31 08:53:14;;;;;;;181.93;85.53;;;9.80;99.90;;;;;;5096242;28;20389;-59
2024/01/31 08:55:39;;;;;;;189.00;87.07;;;10.30;99.90;;;;;;5096483;28;20028;-59
2024/01/31 08:58:05;;;;;;;171.05;88.30;;;10.30;99.90;;;;;;5096164;28;20028;-59
2024/01/31 09:00:31;;;;;;;211.77;102.32;;;10.40;99.90;;;;;;5096371;28;20027;-59
2024/01/31 09:02:57;;;;;;;204.95;100.20;;;10.90;99.90;;;;;;5096338;28;20063;-59
2024/01/31 09:05:23;;;;;;;190.75;95.90;;;10.90;99.90;;;;;;5096581;28;20028;-59
2024/01/31 09:07:49;;;;;;;194.75;101.07;;;11.30;99.90;;;;;;5095622;28;20028;-59
2024/01/31 09:10:14;;;;;;;197.68;104.72;;;11.20;99.90;;;;;;5096254;28;20596;-59
2024/01/31 09:12:40;;;;;;;197.85;103.85;;;11.50;99.90;;;;;;5096041;28;20039;-59
2024/01/31 09:15:07;;;;;;;184.88;98.90;;;11.30;99.90;;;;;;5095915;28;20051;-59
2024/01/31 09:17:32;;;;;;;167.85;90.15;;;11.40;99.90;;;;;;5095906;28;20527;-59
2024/01/31 09:20:06;;;;;;;175.85;92.07;;;11.50;99.90;;;;;;5092626;27;20386;-57
2024/01/31 09:22:32;;;;;;;182.02;97.90;;;11.40;99.90;;;;;;5092512;28;20028;-57
2024/01/31 09:24:58;;;;;;;180.38;94.65;;;11.30;99.90;;;;;;5090791;28;20077;-57
2024/01/31 09:27:23;;;;;;;172.88;89.15;;;11.20;99.90;;;;;;5092815;28;20024;-57
2024/01/31 09:29:49;;;;;;;166.35;90.72;;;11.70;99.90;;;;;;5092785;28;20463;-57
2024/01/31 09:32:15;;;;;;;189.75;101.10;;;12.30;99.90;;;;;;5092648;27;20062;-57
2024/01/31 09:34:42;;;;;;;181.38;104.07;;;12.60;99.90;;;;;;5092774;28;20107;-57
2024/01/31 09:37:07;;;;;;;190.70;103.15;;;12.80;99.90;;;;;;5092465;28;20062;-57
2024/01/31 09:39:33;;;;;;;193.18;107.47;;;12.80;99.90;;;;;;5092454;28;20056;-57
2024/01/31 09:41:59;;;;;;;192.88;97.75;;;13.00;99.90;;;;;;5092611;28;20024;-57
2024/01/31 09:44:25;;;;;;;177.73;98.82;;;12.90;99.90;;;;;;5092433;28;20052;-57
2024/01/31 09:46:57;;;;;;;176.18;100.13;;;13.00;99.90;;;;;;5092235;27;20101;-57
2024/01/31 09:49:23;;;;;;;173.82;100.35;;;12.60;99.90;;;;;;5092432;28;20077;-57
2024/01/31 09:51:48;;;;;;;175.25;96.90;;;12.90;99.90;;;;;;5092231;28;20036;-57
2024/01/31 09:54:16;;;;;;;177.02;93.07;;;13.20;99.90;;;;;;5092205;28;20115;-57
2024/01/31 09:56:42;;;;;;;145.32;78.60;;;13.50;99.90;;;;;;5092063;28;20173;-57
2024/01/31 09:59:08;;;;;;;164.90;86.68;;;13.80;99.90;;;;;;5092277;28;20086;-57
2024/01/31 10:01:37;;;;;;;164.20;88.53;;;13.90;99.90;;;;;;5092099;28;20381;-57
2024/01/31 10:04:02;;;;;;;175.90;98.40;;;13.80;99.90;;;;;;5092011;28;20020;-57
2024/01/31 10:06:28;;;;;;;143.80;80.65;;;14.10;99.90;;;;;;5092149;28;20035;-57
2024/01/31 10:08:57;;;;;;;168.63;92.28;;;13.90;99.90;;;;;;5091639;28;20032;-57
2024/01/31 10:11:24;;;;;;;169.70;90.57;;;14.00;99.90;;;;;;5092075;28;20024;-57
2024/01/31 10:13:50;;;;;;;171.15;90.72;;;14.20;99.90;;;;;;5091583;28;20039;-57
2024/01/31 10:16:16;;;;;;;158.80;91.15;;;14.00;99.90;;;;;;5091669;28;20020;-57
2024/01/31 10:18:42;;;;;;;202.00;104.50;;;13.90;99.90;;;;;;5111141;28;20020;-57
2024/01/31 10:21:10;;;;;;;196.93;96.85;;;13.90;99.90;;;;;;5111530;28;20378;-57
2024/01/31 10:23:36;;;;;;;157.68;82.60;;;13.40;99.90;;;;;;5111855;28;20084;-57
2024/01/31 10:26:02;;;;;;;168.88;95.95;;;13.80;99.90;;;;;;5111763;27;20035;-57
2024/01/31 10:28:31;;;;;;;173.35;94.32;;;13.60;99.90;;;;;;5112040;28;20026;-57
2024/01/31 10:30:57;;;;;;;177.55;92.82;;;13.80;99.90;;;;;;5088739;28;20024;-58
2024/01/31 10:33:25;;;;;;;143.75;78.43;;;13.90;99.90;;;;;;5063966;28;20032;-58
2024/01/31 10:35:52;;;;;;;152.98;77.80;;;13.30;99.90;;;;;;5077971;28;20032;-58
2024/01/31 10:38:18;;;;;;;132.15;72.97;;;12.90;99.90;;;;;;5077373;28;20397;-58
2024/01/31 10:40:47;;;;;;;144.38;76.80;;;13.40;99.90;;;;;;5078087;28;20374;-58
2024/01/31 10:43:14;;;;;;;136.18;75.68;;;14.30;99.90;;;;;;5077727;28;20462;-58
2024/01/31 10:45:41;;;;;;;139.88;71.38;;;14.50;99.90;;;;;;5077670;28;20027;-58
2024/01/31 10:48:07;;;;;;;119.60;66.35;;;14.20;99.90;;;;;;5077528;28;20040;-58
2024/01/31 10:50:33;;;;;;;123.00;68.57;;;14.50;99.90;;;;;;5077646;28;20025;-58
2024/01/31 10:53:02;;;;;;;129.88;68.43;;;15.10;99.90;;;;;;5078021;28;20082;-58
2024/01/31 10:55:28;;;;;;;115.00;63.90;;;15.10;99.90;;;;;;5077467;28;20033;-58
2024/01/31 10:57:56;;;;;;;108.05;61.65;;;15.40;99.90;;;;;;5097140;28;20080;-58
2024/01/31 11:00:25;;;;;;;113.10;62.28;;;16.20;99.90;;;;;;5097713;28;20020;-58
2024/01/31 11:02:51;;;;;;;129.25;67.07;;;16.20;99.90;;;;;;5097558;28;20026;-58
2024/01/31 11:05:17;;;;;;;109.90;60.15;;;16.00;99.90;;;;;;5097651;28;20499;-58
2024/01/31 11:07:46;;;;;;;120.38;66.82;;;16.10;99.90;;;;;;5097377;28;20046;-58
2024/01/31 11:10:22;;;;;;;123.10;61.85;;;16.80;99.90;;;;;;5097716;28;20409;-58
2024/01/31 11:13:07;;;;;;;114.45;64.30;;;17.30;99.90;;;;;;5097455;28;20493;-58
2024/01/31 11:15:34;;;;;;;123.13;62.55;;;18.00;99.90;;;;;;5097330;28;20070;-58
2024/01/31 11:18:10;;;;;;;103.47;59.28;;;17.60;99.90;;;;;;5097443;28;20058;-58
2024/01/31 11:20:40;;;;;;;115.75;60.33;;;17.30;99.90;;;;;;5097373;28;20031;-59
2024/01/31 11:23:06;;;;;;;90.88;51.28;;;17.40;99.90;;;;;;5097186;28;20040;-58
2024/01/31 11:25:34;;;;;;;99.45;53.22;;;17.80;99.90;;;;;;5097113;28;20103;-58
2024/01/31 11:28:01;;;;;;;110.80;60.47;;;17.80;99.90;;;;;;5097091;28;20500;-58
2024/01/31 11:30:28;;;;;;;134.10;64.95;;;17.50;99.90;;;;;;5097030;28;20043;-58
2024/01/31 11:32:53;;;;;;;115.65;65.15;;;17.40;99.90;;;;;;5096534;28;20039;-58
2024/01/31 11:35:20;;;;;;;114.93;64.68;;;17.30;99.90;;;;;;5097133;28;20458;-58
2024/01/31 11:37:46;;;;;;;111.70;63.75;;;17.50;99.90;;;;;;5096786;28;20028;-58
2024/01/31 11:40:11;;;;;;;119.18;60.55;;;17.40;99.90;;;;;;5097064;28;20474;-58
2024/01/31 11:42:38;;;;;;;105.30;58.25;;;17.50;99.90;;;;;;5096019;28;20039;-58
2024/01/31 11:45:04;;;;;;;110.25;60.50;;;17.80;99.90;;;;;;5096787;28;20035;-58
2024/01/31 11:47:31;;;;;;;93.45;54.05;;;17.80;99.90;;;;;;5096971;28;20020;-58
2024/01/31 11:50:04;;;;;;;101.93;53.17;;;17.90;99.90;;;;;;5096764;28;20103;-58
2024/01/31 11:52:30;;;;;;;85.30;48.40;;;17.90;99.90;;;;;;5096805;28;20111;-58
2024/01/31 11:54:56;;;;;;;80.85;45.92;;;17.90;99.90;;;;;;5096522;28;20116;-58
2024/01/31 11:57:22;;;;;;;81.45;42.67;;;17.60;99.90;;;;;;5096767;28;20114;-58
2024/01/31 11:59:50;;;;;;;81.20;42.83;;;17.80;99.90;;;;;;5095428;28;20465;-58
2024/01/31 12:02:17;;;;;;;69.70;41.92;;;18.00;99.90;;;;;;5096535;28;20032;-58
2024/01/31 12:04:51;;;;;;;74.00;38.30;;;17.30;99.90;;;;;;5095311;28;20100;-58
2024/01/31 12:07:18;;;;;;;59.42;33.10;;;18.10;99.90;;;;;;5096079;28;20040;-58
2024/01/31 12:09:43;;;;;;;69.80;29.73;;;18.00;99.90;;;;;;5096341;28;20024;-58
2024/01/31 12:12:09;;;;;;;43.80;22.95;;;18.20;99.90;;;;;;5095140;28;20036;-58
2024/01/31 12:14:35;;;;;;;41.45;22.25;;;17.80;99.90;;;;;;5096231;28;20028;-58
2024/01/31 12:17:01;;;;;;;35.90;18.70;;;18.00;99.90;;;;;;5096175;28;20496;-58